createdAt,value
2018-09-19T00:01:26.937Z,98510.31
2018-09-19T00:03:54.242Z,98513.43
2018-09-19T00:06:21.496Z,98518.44
2018-09-19T00:08:48.783Z,98517.08
2018-09-19T00:11:16.048Z,98517.38
2018-09-19T00:13:43.397Z,98513.72
2018-09-19T00:16:10.643Z,98527.66
2018-09-19T00:24:17.933Z,98521.82
2018-09-19T00:26:45.177Z,98520.48
2018-09-19T00:29:12.446Z,98523.24
2018-09-19T00:31:39.722Z,98531.59
2018-09-19T00:34:06.972Z,98536.84
2018-09-19T00:36:34.218Z,98536.84
2018-09-19T00:39:01.454Z,98536.95
2018-09-19T00:41:28.712Z,98542.59
2018-09-19T00:43:55.962Z,98547.59
2018-09-19T00:46:23.208Z,98541.48
2018-09-19T00:48:50.501Z,98543.85
2018-09-19T00:51:17.748Z,98536.66
2018-09-19T00:53:45.031Z,98551.69
2018-09-19T00:56:12.489Z,98553.37
2018-09-19T00:58:39.764Z,98555.70
2018-09-19T01:01:07.006Z,98561.52
2018-09-19T01:03:34.331Z,98558.94
2018-09-19T01:06:01.584Z,98559.66
2018-09-19T01:08:28.865Z,98561.27
2018-09-19T01:10:56.104Z,98563.89
2018-09-19T01:13:23.389Z,98562.42
2018-09-19T01:15:50.619Z,98575.92
2018-09-19T01:18:17.894Z,98568.31
2018-09-19T01:20:45.243Z,98572.98
2018-09-19T01:23:12.510Z,98568.98
2018-09-19T01:25:39.764Z,98568.61
2018-09-19T01:28:07.185Z,98564.41
2018-09-19T01:30:34.425Z,98559.62
2018-09-19T01:33:01.697Z,98572.98
2018-09-19T01:35:28.941Z,98572.12
2018-09-19T01:37:56.286Z,98574.25
2018-09-19T01:40:23.560Z,98575.14
2018-09-19T01:42:56.998Z,98579.31
2018-09-19T01:45:24.264Z,98580.94
2018-09-19T01:47:51.491Z,98583.75
2018-09-19T01:50:18.756Z,98594.66
2018-09-19T01:52:45.999Z,98591.14
2018-09-19T01:55:13.269Z,98599.45
2018-09-19T01:57:40.739Z,98598.59
2018-09-19T02:00:08.042Z,98602.23
2018-09-19T02:02:35.283Z,98602.84
2018-09-19T02:05:02.523Z,98592.81
2018-09-19T02:07:29.765Z,98598.95
2018-09-19T02:09:57.020Z,98598.20
2018-09-19T02:12:24.270Z,98605.09
2018-09-19T02:14:51.511Z,98603.38
2018-09-19T02:17:18.757Z,98603.53
2018-09-19T02:19:46.047Z,98610.42
2018-09-19T02:22:13.317Z,98607.80
2018-09-19T02:24:40.643Z,98613.13
2018-09-19T02:27:07.920Z,98612.18
2018-09-19T02:29:35.186Z,98611.86
2018-09-19T02:32:02.597Z,98612.99
2018-09-19T02:34:29.863Z,98614.56
2018-09-19T02:36:57.121Z,98618.03
2018-09-19T02:39:24.366Z,98612.13
2018-09-19T02:41:51.599Z,98615.66
2018-09-19T02:44:18.859Z,98626.31
2018-09-19T02:46:46.104Z,98623.27
2018-09-19T02:49:13.396Z,98625.55
2018-09-19T02:51:40.652Z,98621.32
2018-09-19T02:54:07.935Z,98621.32
2018-09-19T02:56:35.216Z,98626.97
2018-09-19T02:59:02.493Z,98628.45
2018-09-19T03:01:29.827Z,98635.45
2018-09-19T03:03:57.132Z,98618.64
2018-09-19T03:06:24.382Z,98627.44
2018-09-19T03:08:51.624Z,98630.94
2018-09-19T03:11:18.918Z,98625.38
2018-09-19T03:13:46.188Z,98631.08
2018-09-19T03:16:13.477Z,98624.04
2018-09-19T03:19:02.512Z,98630.13
2018-09-19T03:21:31.268Z,98632.32
2018-09-19T03:23:58.827Z,98633.44
2018-09-19T03:26:26.131Z,98626.16
2018-09-19T03:28:53.382Z,98628.06
2018-09-19T03:31:20.649Z,98630.89
2018-09-19T03:33:47.895Z,98639.09
2018-09-19T03:36:15.163Z,98641.06
2018-09-19T03:38:42.398Z,98634.71
2018-09-19T03:41:09.661Z,98643.47
2018-09-19T03:43:36.886Z,98647.16
2018-09-19T03:46:04.220Z,98642.78
2018-09-19T03:48:31.441Z,98650.30
2018-09-19T03:50:58.713Z,98656.78
2018-09-19T03:53:25.960Z,98652.78
2018-09-19T03:55:53.262Z,98652.25
2018-09-19T03:58:20.569Z,98650.92
2018-09-19T04:00:47.870Z,98655.30
2018-09-19T04:03:15.159Z,98660.75
2018-09-19T04:05:52.866Z,98657.12
2018-09-19T04:08:20.142Z,98652.27
2018-09-19T04:10:48.254Z,98658.65
2018-09-19T04:13:15.600Z,98660.47
2018-09-19T04:15:42.842Z,98668.95
2018-09-19T04:18:10.274Z,98665.11
2018-09-19T04:20:37.534Z,98674.13
2018-09-19T04:23:04.840Z,98673.58
2018-09-19T04:25:32.152Z,98669.59
2018-09-19T04:27:59.377Z,98680.15
2018-09-19T04:30:26.632Z,98682.20
2018-09-19T04:32:53.894Z,98682.25
2018-09-19T04:35:21.239Z,98678.27
2018-09-19T04:37:48.518Z,98689.32
2018-09-19T04:40:15.838Z,98677.88
2018-09-19T04:42:43.235Z,98686.32
2018-09-19T04:45:10.626Z,98693.05
2018-09-19T04:47:37.913Z,98690.09
2018-09-19T04:50:05.340Z,98684.00
2018-09-19T04:52:35.242Z,98677.48
2018-09-19T04:55:03.700Z,98697.54
2018-09-19T04:57:31.130Z,98712.92
2018-09-19T04:59:58.513Z,98713.92
2018-09-19T05:02:26.596Z,98711.63
2018-09-19T05:04:53.951Z,98716.49
2018-09-19T05:07:21.466Z,98713.25
2018-09-19T05:09:48.846Z,98714.47
2018-09-19T05:12:16.526Z,98717.12
2018-09-19T05:14:43.797Z,98720.17
2018-09-19T05:17:11.372Z,98734.78
2018-09-19T05:19:38.744Z,98733.19
2018-09-19T05:22:06.341Z,98737.91
2018-09-19T05:24:35.273Z,98740.01
2018-09-19T05:27:03.386Z,98740.28
2018-09-19T05:29:30.777Z,98743.01
2018-09-19T05:31:58.186Z,98747.58
2018-09-19T05:34:25.544Z,98748.77
2018-09-19T05:36:54.473Z,98753.67
2018-09-19T05:39:22.507Z,98754.08
2018-09-19T05:41:49.871Z,98752.44
2018-09-19T05:44:17.251Z,98754.75
2018-09-19T05:46:44.647Z,98765.62
2018-09-19T05:49:12.078Z,98768.02
2018-09-19T05:51:39.387Z,98769.07
2018-09-19T05:54:06.784Z,98766.60
2018-09-19T05:56:34.252Z,98774.13
2018-09-19T05:59:01.493Z,98777.90
2018-09-19T06:01:29.246Z,98779.09
2018-09-19T06:03:56.610Z,98778.15
2018-09-19T06:06:23.952Z,98782.05
2018-09-19T06:08:51.376Z,98784.34
2018-09-19T06:11:18.781Z,98787.47
2018-09-19T06:13:46.460Z,98793.98
2018-09-19T06:16:13.844Z,98794.86
2018-09-19T06:18:41.229Z,98805.55
2018-09-19T06:21:08.519Z,98803.99
2018-09-19T06:23:35.839Z,98809.85
2018-09-19T06:26:03.212Z,98811.92
2018-09-19T06:28:30.500Z,98807.77
2018-09-19T06:30:57.816Z,98804.08
2018-09-19T06:33:25.188Z,98799.06
2018-09-19T06:35:52.451Z,98795.12
2018-09-19T06:38:20.385Z,98798.04
2018-09-19T06:40:47.936Z,98797.75
2018-09-19T06:43:16.422Z,98798.47
2018-09-19T06:45:44.702Z,98807.48
2018-09-19T06:48:13.069Z,98803.94
2018-09-19T06:50:40.783Z,98805.89
2018-09-19T06:53:09.319Z,98804.23
2018-09-19T06:55:37.420Z,98808.66
2018-09-19T06:58:05.952Z,98814.93
2018-09-19T07:00:33.612Z,98819.56
2018-09-19T07:03:00.945Z,98823.38
2018-09-19T07:05:28.281Z,98820.69
2018-09-19T07:07:55.623Z,98828.66
2018-09-19T07:10:22.909Z,98822.65
2018-09-19T07:12:50.308Z,98811.59
2018-09-19T07:15:17.922Z,98810.23
2018-09-19T07:17:45.312Z,98813.88
2018-09-19T07:20:12.635Z,98810.09
2018-09-19T07:22:40.017Z,98814.04
2018-09-19T07:25:07.550Z,98803.08
2018-09-19T07:27:34.887Z,98804.56
2018-09-19T07:30:02.264Z,98795.73
2018-09-19T07:32:29.602Z,98792.52
2018-09-19T07:34:56.956Z,98791.95
2018-09-19T07:37:24.280Z,98792.06
2018-09-19T07:39:51.593Z,98796.97
2018-09-19T07:42:18.954Z,98798.67
2018-09-19T07:44:46.300Z,98805.31
2018-09-19T07:47:13.630Z,98805.42
2018-09-19T07:49:40.978Z,98812.48
2018-09-19T07:52:08.280Z,98806.68
2018-09-19T07:54:35.749Z,98801.76
2018-09-19T07:57:03.090Z,98800.76
2018-09-19T07:59:30.649Z,98796.70
2018-09-19T08:01:58.197Z,98799.13
2018-09-19T08:04:25.600Z,98795.70
2018-09-19T08:06:52.936Z,98806.91
2018-09-19T08:09:20.449Z,98809.02
2018-09-19T08:11:47.837Z,98810.38
2018-09-19T08:14:15.228Z,98810.50
2018-09-19T08:16:42.706Z,98804.94
2018-09-19T08:19:10.904Z,98803.89
2018-09-19T08:21:38.216Z,98802.34
2018-09-19T08:24:05.520Z,98798.47
2018-09-19T08:26:32.948Z,98799.07
2018-09-19T08:29:00.512Z,98791.98
2018-09-19T08:31:27.945Z,98799.48
2018-09-19T08:33:55.339Z,98799.33
2018-09-19T08:36:22.674Z,98798.39
2018-09-19T08:38:50.011Z,98787.22
2018-09-19T08:41:17.323Z,98788.50
2018-09-19T08:43:44.723Z,98785.64
2018-09-19T08:46:12.386Z,98786.23
2018-09-19T08:48:39.778Z,98783.80
2018-09-19T08:51:07.139Z,98781.73
2018-09-19T08:53:34.501Z,98783.30
2018-09-19T08:56:01.782Z,98782.59
2018-09-19T08:58:29.308Z,98782.16
2018-09-19T09:00:56.824Z,98776.18
2018-09-19T09:03:24.147Z,98775.10
2018-09-19T09:05:51.575Z,98774.50
2018-09-19T09:08:18.861Z,98768.33
2018-09-19T09:10:46.335Z,98760.92
2018-09-19T09:13:13.815Z,98766.50
2018-09-19T09:15:41.289Z,98767.19
2018-09-19T09:18:08.727Z,98764.60
2018-09-19T09:20:36.103Z,98768.95
2018-09-19T09:23:03.619Z,98766.02
2018-09-19T09:25:31.000Z,98768.80
2018-09-19T09:27:58.494Z,98768.75
2018-09-19T09:30:25.962Z,98768.98
2018-09-19T09:32:53.316Z,98759.34
2018-09-19T09:35:20.691Z,98752.53
2018-09-19T09:37:48.912Z,98750.57
2018-09-19T09:40:16.354Z,98757.53
2018-09-19T09:42:43.631Z,98755.42
2018-09-19T09:45:12.015Z,98751.48
2018-09-19T09:47:39.824Z,98753.17
2018-09-19T09:50:07.639Z,98752.83
2018-09-19T09:52:34.928Z,98744.70
2018-09-19T09:55:02.369Z,98742.20
2018-09-19T09:57:29.678Z,98730.05
2018-09-19T09:59:57.015Z,98735.53
2018-09-19T10:02:24.964Z,98740.89
2018-09-19T10:04:52.325Z,98736.94
2018-09-19T10:07:19.632Z,98723.14
2018-09-19T10:09:46.968Z,98734.57
2018-09-19T10:12:15.260Z,98721.20
2018-09-19T10:14:42.779Z,98720.62
2018-09-19T10:17:10.083Z,98718.75
2018-09-19T10:19:37.486Z,98717.82
2018-09-19T10:22:04.885Z,98712.43
2018-09-19T10:24:32.265Z,98718.91
2018-09-19T10:27:00.131Z,98721.50
2018-09-19T10:29:27.587Z,98722.95
2018-09-19T10:31:54.894Z,98720.85
2018-09-19T10:34:22.299Z,98713.11
2018-09-19T10:36:50.116Z,98714.55
2018-09-19T10:39:17.475Z,98713.78
2018-09-19T10:41:44.785Z,98716.25
2018-09-19T10:44:12.136Z,98718.78
2018-09-19T10:46:39.514Z,98714.50
2018-09-19T10:49:06.983Z,98721.25
2018-09-19T10:51:34.277Z,98717.25
2018-09-19T10:54:01.722Z,98715.52
2018-09-19T10:56:29.700Z,98716.77
2018-09-19T10:58:57.256Z,98722.19
2018-09-19T11:01:25.611Z,98723.41
2018-09-19T11:03:53.080Z,98724.03
2018-09-19T11:06:20.448Z,98718.51
2018-09-19T11:08:47.767Z,98710.36
2018-09-19T11:11:15.260Z,98714.61
2018-09-19T11:13:42.812Z,98720.47
2018-09-19T11:16:10.267Z,98721.83
2018-09-19T11:18:37.593Z,98719.50
2018-09-19T11:23:39.169Z,98720.03
2018-09-19T11:26:07.548Z,98724.31
2018-09-19T11:28:36.119Z,98721.54
2018-09-19T11:31:03.572Z,98717.51
2018-09-19T11:33:31.044Z,98712.73
2018-09-19T11:35:58.417Z,98720.17
2018-09-19T11:38:34.905Z,98717.75
2018-09-19T11:41:02.636Z,98721.83
2018-09-19T11:43:30.759Z,98715.39
2018-09-19T11:46:03.414Z,98711.75
2018-09-19T11:48:30.741Z,98727.05
2018-09-19T11:50:58.204Z,98708.77
2018-09-19T11:53:27.635Z,98715.33
2018-09-19T11:55:55.772Z,98703.09
2018-09-19T11:58:23.117Z,98718.05
2018-09-19T12:00:50.727Z,98713.29
2018-09-19T12:03:18.089Z,98719.28
2018-09-19T12:05:45.415Z,98714.70
2018-09-19T12:08:12.845Z,98722.03
2018-09-19T12:10:41.941Z,98715.14
2018-09-19T12:13:09.258Z,98715.95
2018-09-19T12:15:36.740Z,98703.14
2018-09-19T12:18:04.199Z,98705.36
2018-09-19T12:20:31.899Z,98696.64
2018-09-19T12:22:59.274Z,98697.00
2018-09-19T12:25:27.235Z,98696.64
2018-09-19T12:27:54.652Z,98686.98
2018-09-19T12:30:23.215Z,98682.59
2018-09-19T12:32:50.555Z,98675.17
2018-09-19T12:35:18.537Z,98671.84
2018-09-19T12:37:46.106Z,98676.26
2018-09-19T12:40:13.674Z,98669.27
2018-09-19T12:42:41.078Z,98667.80
2018-09-19T12:45:08.757Z,98676.24
2018-09-19T12:47:36.228Z,98666.95
2018-09-19T12:50:03.723Z,98669.97
2018-09-19T12:52:31.195Z,98665.56
2018-09-19T12:54:58.575Z,98658.39
2018-09-19T12:57:25.924Z,98656.94
2018-09-19T12:59:53.306Z,98655.88
2018-09-19T13:02:20.700Z,98648.45
2018-09-19T13:04:48.042Z,98649.26
2018-09-19T13:07:16.216Z,98646.75
2018-09-19T13:09:43.581Z,98656.85
2018-09-19T13:12:10.991Z,98649.56
2018-09-19T13:14:38.323Z,98648.50
2018-09-19T13:17:05.711Z,98653.20
2018-09-19T13:19:33.109Z,98645.46
2018-09-19T13:22:00.491Z,98657.75
2018-09-19T13:24:27.885Z,98648.72
2018-09-19T13:26:55.281Z,98644.98
2018-09-19T13:29:23.189Z,98638.77
2018-09-19T13:31:50.614Z,98639.88
2018-09-19T13:34:18.000Z,98645.42
2018-09-19T13:36:45.415Z,98643.34
2018-09-19T13:39:13.319Z,98645.86
2018-09-19T13:41:42.269Z,98647.55
2018-09-19T13:44:09.946Z,98644.00
2018-09-19T13:46:37.952Z,98641.56
2018-09-19T13:49:10.054Z,98637.53
2018-09-19T13:51:38.135Z,98645.59
2018-09-19T13:54:05.627Z,98631.98
2018-09-19T13:56:33.745Z,98644.58
2018-09-19T13:59:01.200Z,98641.58
2018-09-19T14:01:28.657Z,98640.65
2018-09-19T14:03:56.129Z,98638.20
2018-09-19T14:06:23.617Z,98629.70
2018-09-19T14:08:52.047Z,98628.34
2018-09-19T14:11:19.380Z,98628.70
2018-09-19T14:13:46.784Z,98626.87
2018-09-19T14:16:14.181Z,98632.27
2018-09-19T14:18:42.094Z,98633.48
2018-09-19T14:21:09.907Z,98627.48
2018-09-19T14:23:37.427Z,98630.75
2018-09-19T14:26:04.855Z,98628.06
2018-09-19T14:28:32.287Z,98633.11
2018-09-19T14:31:00.701Z,98625.67
2018-09-19T14:33:28.980Z,98626.80
2018-09-19T14:35:57.188Z,98630.74
2018-09-19T14:38:27.651Z,98622.45
2018-09-19T14:40:55.568Z,98635.47
2018-09-19T14:43:23.079Z,98628.00
2018-09-19T14:45:50.452Z,98625.98
2018-09-19T14:48:17.977Z,98624.16
2018-09-19T14:50:46.921Z,98632.02
2018-09-19T14:53:15.151Z,98625.67
2018-09-19T14:55:43.249Z,98632.28
2018-09-19T14:58:10.668Z,98622.20
2018-09-19T15:00:37.977Z,98628.16
2018-09-19T15:03:05.711Z,98636.02
2018-09-19T15:05:33.071Z,98626.31
2018-09-19T15:08:00.512Z,98625.98
2018-09-19T15:10:29.907Z,98626.56
2018-09-19T15:12:57.354Z,98619.31
2018-09-19T15:15:24.809Z,98618.88
2018-09-19T15:17:52.306Z,98616.98
2018-09-19T15:20:19.657Z,98615.83
2018-09-19T15:22:47.106Z,98620.70
2018-09-19T15:25:14.579Z,98605.94
2018-09-19T15:27:42.512Z,98619.69
2018-09-19T15:30:09.886Z,98615.51
2018-09-19T15:32:37.420Z,98615.58
2018-09-19T15:35:05.728Z,98615.39
2018-09-19T15:37:33.899Z,98615.73
2018-09-19T15:40:01.324Z,98607.88
2018-09-19T15:42:28.808Z,98615.30
2018-09-19T15:44:56.167Z,98607.10
2018-09-19T15:47:23.727Z,98606.63
2018-09-19T15:49:51.240Z,98617.31
2018-09-19T15:52:19.330Z,98614.53
2018-09-19T15:54:46.825Z,98611.39
2018-09-19T15:57:14.472Z,98612.74
2018-09-19T15:59:42.734Z,98611.34
2018-09-19T16:02:10.139Z,98612.61
2018-09-19T16:04:37.619Z,98614.90
2018-09-19T16:07:05.056Z,98621.72
2018-09-19T16:09:33.101Z,98617.72
2018-09-19T16:12:00.457Z,98621.07
2018-09-19T16:14:27.917Z,98618.22
2018-09-19T16:16:55.273Z,98620.53
2018-09-19T16:19:22.723Z,98626.09
2018-09-19T16:21:50.088Z,98624.88
2018-09-19T16:24:17.443Z,98631.83
2018-09-19T16:26:44.801Z,98627.88
2018-09-19T16:29:12.251Z,98634.22
2018-09-19T16:31:39.588Z,98631.50
2018-09-19T16:34:07.201Z,98634.39
2018-09-19T16:36:34.602Z,98632.13
2018-09-19T16:39:02.246Z,98632.00
2018-09-19T16:41:30.177Z,98641.20
2018-09-19T16:44:04.309Z,98636.23
2018-09-19T16:46:31.641Z,98643.97
2018-09-19T16:49:10.932Z,98642.16
2018-09-19T16:51:38.451Z,98639.49
2018-09-19T16:54:05.859Z,98637.39
2018-09-19T16:56:33.300Z,98643.59
2018-09-19T16:59:00.792Z,98639.99
2018-09-19T17:01:28.739Z,98636.11
2018-09-19T17:03:56.367Z,98648.31
2018-09-19T17:06:23.898Z,98642.73
2018-09-19T17:08:51.260Z,98643.53
2018-09-19T17:11:23.440Z,98645.44
2018-09-19T17:13:55.396Z,98644.73
2018-09-19T17:16:28.598Z,98646.45
2018-09-19T17:19:02.522Z,98644.27
2018-09-19T17:21:35.989Z,98650.77
2018-09-19T17:24:09.456Z,98650.31
2018-09-19T17:26:42.444Z,98654.11
2018-09-19T17:29:15.796Z,98653.41
2018-09-19T17:31:47.717Z,98659.37
2018-09-19T17:34:19.447Z,98650.44
2018-09-19T17:36:51.794Z,98650.82
2018-09-19T17:39:23.432Z,98654.83
2018-09-19T17:41:55.159Z,98653.59
2018-09-19T17:44:24.689Z,98655.68
2018-09-19T17:46:53.408Z,98654.34
2018-09-19T17:49:21.928Z,98654.83
2018-09-19T17:51:50.612Z,98652.48
2018-09-19T17:54:19.105Z,98659.22
2018-09-19T17:56:47.161Z,98649.91
2018-09-19T17:59:15.113Z,98657.38
2018-09-19T18:01:42.947Z,98655.79
2018-09-19T18:04:10.912Z,98659.45
2018-09-19T18:06:38.913Z,98657.97
2018-09-19T18:09:07.560Z,98656.77
2018-09-19T18:11:36.334Z,98660.03
2018-09-19T18:14:04.515Z,98657.59
2018-09-19T18:16:32.262Z,98664.16
2018-09-19T18:19:00.382Z,98657.56
2018-09-19T18:21:28.443Z,98665.70
2018-09-19T18:23:56.293Z,98663.74
2018-09-19T18:26:24.264Z,98664.33
2018-09-19T18:28:52.799Z,98661.03
2018-09-19T18:31:21.182Z,98664.18
2018-09-19T18:33:49.670Z,98661.58
2018-09-19T18:36:17.867Z,98672.57
2018-09-19T18:38:45.612Z,98677.66
2018-09-19T18:41:13.571Z,98674.69
2018-09-19T18:43:41.392Z,98673.56
2018-09-19T18:46:09.528Z,98678.64
2018-09-19T18:48:37.386Z,98685.22
2018-09-19T18:51:06.217Z,98682.34
2018-09-19T18:53:34.170Z,98688.92
2018-09-19T18:56:02.140Z,98692.41
2018-09-19T18:58:30.033Z,98689.44
2018-09-19T19:00:58.496Z,98686.70
2018-09-19T19:03:26.454Z,98693.77
2018-09-19T19:05:55.352Z,98694.56
2018-09-19T19:08:23.586Z,98694.62
2018-09-19T19:10:51.445Z,98690.30
2018-09-19T19:13:20.171Z,98700.66
2018-09-19T19:15:48.344Z,98697.66
2018-09-19T19:18:16.503Z,98691.44
2018-09-19T19:20:45.302Z,98695.66
2018-09-19T19:23:13.140Z,98692.10
2018-09-19T19:25:42.687Z,98706.91
2018-09-19T19:28:10.819Z,98701.23
2018-09-19T19:30:39.206Z,98698.20
2018-09-19T19:33:07.298Z,98700.55
2018-09-19T19:35:35.633Z,98708.23
2018-09-19T19:38:04.690Z,98698.30
2018-09-19T19:40:32.566Z,98704.19
2018-09-19T19:43:00.720Z,98708.25
2018-09-19T19:45:29.176Z,98709.70
2018-09-19T19:47:57.083Z,98707.92
2018-09-19T19:50:25.102Z,98713.69
2018-09-19T19:52:53.554Z,98711.83
2018-09-19T19:55:21.316Z,98711.16
2018-09-19T19:57:49.893Z,98707.63
2018-09-19T20:00:18.057Z,98708.52
2018-09-19T20:02:45.797Z,98710.29
2018-09-19T20:05:14.648Z,98705.68
2018-09-19T20:07:43.172Z,98707.28
2018-09-19T20:10:11.408Z,98712.53
2018-09-19T20:12:39.244Z,98712.75
2018-09-19T20:15:07.163Z,98712.72
2018-09-19T20:17:35.248Z,98715.77
2018-09-19T20:20:03.131Z,98716.73
2018-09-19T20:22:31.069Z,98722.13
2018-09-19T20:24:59.149Z,98715.27
2018-09-19T20:27:26.883Z,98715.19
2018-09-19T20:29:55.607Z,98710.20
2018-09-19T20:32:23.847Z,98710.98
2018-09-19T20:34:51.978Z,98719.90
2018-09-19T20:37:19.897Z,98714.73
2018-09-19T20:39:47.480Z,98714.84
2018-09-19T20:42:15.917Z,98718.59
2018-09-19T20:44:44.029Z,98716.69
2018-09-19T20:47:12.075Z,98714.48
2018-09-19T20:49:40.766Z,98715.94
2018-09-19T20:52:08.725Z,98718.41
2018-09-19T20:54:37.111Z,98722.91
2018-09-19T20:57:05.233Z,98722.64
2018-09-19T20:59:33.493Z,98727.80
2018-09-19T21:02:01.672Z,98729.94
2018-09-19T21:04:29.481Z,98728.78
2018-09-19T21:06:57.182Z,98724.98
2018-09-19T21:09:24.977Z,98727.55
2018-09-19T21:11:52.897Z,98727.92
2018-09-19T21:14:21.178Z,98724.02
2018-09-19T21:16:48.499Z,98730.33
2018-09-19T21:19:15.771Z,98737.02
2018-09-19T21:21:43.230Z,98731.50
2018-09-19T21:24:10.471Z,98735.10
2018-09-19T21:26:38.308Z,98735.10
2018-09-19T21:29:05.645Z,98729.97
2018-09-19T21:31:33.171Z,98741.04
2018-09-19T21:34:00.456Z,98731.30
2018-09-19T21:36:27.712Z,98733.77
2018-09-19T21:38:54.955Z,98732.15
2018-09-19T21:41:22.367Z,98737.60
2018-09-19T21:43:49.631Z,98735.68
2018-09-19T21:46:16.932Z,98731.50
2018-09-19T21:48:44.179Z,98736.16
2018-09-19T21:51:11.464Z,98739.78
2018-09-19T21:53:38.678Z,98741.02
2018-09-19T21:56:06.030Z,98736.63
2018-09-19T21:58:33.268Z,98737.02
2018-09-19T22:01:06.480Z,98737.98
2018-09-19T22:03:34.203Z,98736.80
2018-09-19T22:06:01.480Z,98738.92
2018-09-19T22:08:29.258Z,98736.27
2018-09-19T22:10:56.532Z,98743.81
2018-09-19T22:13:23.768Z,98735.70
2018-09-19T22:15:51.038Z,98732.27
2018-09-19T22:18:18.290Z,98735.53
2018-09-19T22:20:45.508Z,98734.85
2018-09-19T22:23:13.227Z,98738.59
2018-09-19T22:25:40.546Z,98737.36
2018-09-19T22:28:07.792Z,98734.20
2018-09-19T22:30:35.036Z,98734.93
2018-09-19T22:33:02.305Z,98735.34
2018-09-19T22:35:29.552Z,98736.37
2018-09-19T22:37:56.805Z,98738.49
2018-09-19T22:40:24.035Z,98734.86
2018-09-19T22:42:51.306Z,98735.03
2018-09-19T22:45:19.156Z,98733.63
2018-09-19T22:47:47.412Z,98727.80
2018-09-19T22:50:14.707Z,98735.98
2018-09-19T22:52:41.992Z,98732.38
2018-09-19T22:55:09.224Z,98730.56
2018-09-19T22:57:36.570Z,98731.20
2018-09-19T23:00:04.000Z,98730.38
2018-09-19T23:02:31.259Z,98732.83
2018-09-19T23:04:58.524Z,98731.70
2018-09-19T23:07:25.912Z,98736.25
2018-09-19T23:09:53.446Z,98740.73
2018-09-19T23:12:20.761Z,98740.27
2018-09-19T23:14:48.019Z,98746.36
2018-09-19T23:17:15.286Z,98746.08
2018-09-19T23:19:42.542Z,98749.96
2018-09-19T23:22:09.825Z,98752.83
2018-09-19T23:24:37.475Z,98750.53
2018-09-19T23:27:04.776Z,98751.67
2018-09-19T23:29:32.059Z,98753.48
2018-09-19T23:31:59.523Z,98750.16
2018-09-19T23:34:26.767Z,98750.86
2018-09-19T23:36:54.064Z,98758.75
2018-09-19T23:39:21.313Z,98758.24
2018-09-19T23:41:48.633Z,98753.77
2018-09-19T23:44:15.864Z,98750.02
2018-09-19T23:46:43.772Z,98755.92
2018-09-19T23:49:11.040Z,98752.27
2018-09-19T23:51:38.306Z,98750.33
2018-09-19T23:54:05.892Z,98755.28
2018-09-19T23:56:33.115Z,98755.28
2018-09-19T23:59:00.373Z,98757.19
